Time;durP1;ratioP1;P1;durP2;ratioP2;P2;SDS_P1;SDS_P2;PMS_P1;PMS_P2;Temp;Humidity;BMP_temperature;BMP_pressure;BME280_temperature;BME280_humidity;BME280_pressure;Samples;Min_cycle;Max_cycle;Signal;HPM_P1;HPM_P2
2021/03/30 00:01:13;;;;;;;13.25;5.75;;;7.90;98.00;;;;;;5082521;28;20036;-69
2021/03/30 00:03:39;;;;;;;18.67;6.47;;;7.80;97.90;;;;;;5082467;28;20047;-69
2021/03/30 00:06:05;;;;;;;16.65;6.40;;;7.80;97.80;;;;;;5083211;28;20470;-69
2021/03/30 00:08:31;;;;;;;16.38;6.20;;;7.80;97.70;;;;;;5082962;28;20045;-69
2021/03/30 00:10:57;;;;;;;12.43;7.38;;;7.70;97.90;;;;;;5083946;28;20412;-69
2021/03/30 00:13:23;;;;;;;14.38;6.13;;;7.60;97.90;;;;;;5082253;28;20050;-69
2021/03/30 00:15:49;;;;;;;16.00;6.72;;;7.70;98.00;;;;;;5083376;28;20032;-69
2021/03/30 00:18:15;;;;;;;9.32;6.15;;;7.60;97.90;;;;;;5084368;28;20124;-69
2021/03/30 00:20:41;;;;;;;11.98;6.22;;;7.60;98.20;;;;;;5087630;28;20119;-69
2021/03/30 00:23:07;;;;;;;12.60;6.85;;;7.60;98.20;;;;;;5084151;28;20442;-69
2021/03/30 00:25:33;;;;;;;20.65;7.82;;;7.70;98.30;;;;;;5089746;28;20040;-69
2021/03/30 00:27:59;;;;;;;9.82;5.75;;;7.80;97.90;;;;;;5086907;28;20035;-69
2021/03/30 00:30:25;;;;;;;8.07;5.53;;;7.80;97.70;;;;;;5090460;28;20119;-69
2021/03/30 00:32:51;;;;;;;14.45;7.60;;;7.80;97.40;;;;;;5084031;28;20028;-69
2021/03/30 00:35:16;;;;;;;14.30;7.10;;;7.80;97.60;;;;;;5084038;28;20063;-69
2021/03/30 00:37:43;;;;;;;17.33;6.40;;;7.80;97.60;;;;;;5080552;28;20102;-69
2021/03/30 00:40:10;;;;;;;17.92;7.82;;;7.80;97.60;;;;;;5083046;28;20028;-69
2021/03/30 00:42:37;;;;;;;11.85;6.55;;;7.80;97.40;;;;;;5083334;28;20074;-69
2021/03/30 00:45:07;;;;;;;14.93;7.57;;;7.70;97.60;;;;;;5087009;28;20033;-69
2021/03/30 00:47:34;;;;;;;18.35;7.70;;;7.60;97.50;;;;;;5087460;28;20047;-69
2021/03/30 00:50:01;;;;;;;19.05;7.50;;;7.60;97.60;;;;;;5088056;28;20555;-69
2021/03/30 00:52:27;;;;;;;14.45;7.53;;;7.60;97.60;;;;;;5084351;28;20055;-69
2021/03/30 00:54:53;;;;;;;14.00;7.63;;;7.70;97.60;;;;;;5083055;28;20043;-69
2021/03/30 00:57:19;;;;;;;15.45;7.88;;;7.60;97.70;;;;;;5082512;28;20732;-69
2021/03/30 00:59:46;;;;;;;12.63;6.85;;;7.60;97.50;;;;;;5081338;28;20093;-69
2021/03/30 01:02:12;;;;;;;14.10;7.50;;;7.70;97.40;;;;;;5084068;28;20494;-69
2021/03/30 01:04:38;;;;;;;17.75;7.57;;;7.70;97.40;;;;;;5082762;28;20480;-69
2021/03/30 01:07:05;;;;;;;16.98;7.95;;;7.50;97.60;;;;;;5085320;28;20040;-69
2021/03/30 01:09:36;;;;;;;14.38;8.15;;;7.50;97.80;;;;;;5084821;28;20066;-69
2021/03/30 01:12:27;;;;;;;17.33;8.73;;;7.50;97.70;;;;;;5079929;28;20032;-69
2021/03/30 01:15:14;;;;;;;14.57;7.60;;;7.50;98.00;;;;;;5084027;28;20046;-69
2021/03/30 01:17:58;;;;;;;14.50;7.78;;;7.50;98.00;;;;;;5083736;28;20040;-69
2021/03/30 01:20:49;;;;;;;13.43;8.07;;;7.40;98.00;;;;;;5084776;28;20041;-69
2021/03/30 01:23:37;;;;;;;16.42;9.38;;;7.40;98.20;;;;;;5078833;28;20470;-69
2021/03/30 01:26:16;;;;;;;16.80;9.80;;;7.40;98.40;;;;;;5084871;28;20109;-69
2021/03/30 01:29:11;;;;;;;18.20;9.75;;;7.50;98.20;;;;;;5087184;28;20063;-69
2021/03/30 01:31:40;;;;;;;15.38;8.93;;;7.50;98.00;;;;;;5081676;28;20103;-69
2021/03/30 01:34:09;;;;;;;15.35;9.48;;;7.50;97.50;;;;;;5082804;28;20036;-69
2021/03/30 01:36:39;;;;;;;19.00;9.38;;;7.60;97.30;;;;;;5087800;28;20040;-69
2021/03/30 01:39:10;;;;;;;19.85;9.23;;;7.70;97.20;;;;;;5085444;28;20112;-69
2021/03/30 01:41:37;;;;;;;17.00;9.10;;;7.70;97.10;;;;;;5082777;28;20040;-69
2021/03/30 01:44:05;;;;;;;18.52;9.60;;;7.80;97.10;;;;;;5085056;28;20036;-69
2021/03/30 01:46:32;;;;;;;15.52;8.73;;;7.80;96.90;;;;;;5087185;28;20401;-69
2021/03/30 01:48:59;;;;;;;11.70;8.50;;;7.70;97.20;;;;;;5084401;28;20084;-69
2021/03/30 01:51:26;;;;;;;14.48;8.93;;;7.70;97.00;;;;;;5083916;28;20037;-69
2021/03/30 01:53:53;;;;;;;14.32;8.55;;;7.70;97.10;;;;;;5083820;28;20048;-69
2021/03/30 01:56:20;;;;;;;16.13;8.45;;;7.60;97.20;;;;;;5069278;28;20044;-69
2021/03/30 01:58:47;;;;;;;16.00;9.05;;;7.70;97.20;;;;;;5085993;28;20156;-69
2021/03/30 02:01:15;;;;;;;15.20;8.77;;;7.60;97.10;;;;;;5084558;28;20036;-69
2021/03/30 02:03:43;;;;;;;13.05;8.90;;;7.60;97.40;;;;;;5080832;28;20040;-69
2021/03/30 02:06:10;;;;;;;17.00;8.75;;;7.50;97.40;;;;;;5082516;28;20028;-69
2021/03/30 02:08:38;;;;;;;14.20;9.25;;;7.50;97.30;;;;;;5085189;28;20044;-69
2021/03/30 02:11:04;;;;;;;14.45;8.95;;;7.40;97.40;;;;;;5085691;28;20066;-69
2021/03/30 02:16:10;;;;;;;13.55;9.05;;;7.40;97.80;;;;;;5079485;28;20086;-69
2021/03/30 02:18:58;;;;;;;12.18;8.68;;;7.30;97.80;;;;;;5082844;28;20125;-69
2021/03/30 02:21:33;;;;;;;15.40;8.98;;;7.30;97.60;;;;;;5084005;28;20040;-69
2021/03/30 02:24:05;;;;;;;14.98;9.05;;;7.30;97.70;;;;;;5084577;28;20040;-69
2021/03/30 02:26:34;;;;;;;13.05;8.55;;;7.30;97.80;;;;;;5086797;28;20050;-69
2021/03/30 02:29:03;;;;;;;14.48;8.38;;;7.20;97.80;;;;;;5089344;28;20057;-69
2021/03/30 02:31:33;;;;;;;13.52;9.38;;;7.20;97.70;;;;;;5085049;28;20107;-69
2021/03/30 02:34:01;;;;;;;13.55;8.57;;;7.20;98.00;;;;;;5088539;28;20081;-69
2021/03/30 02:36:28;;;;;;;11.63;8.82;;;7.20;97.70;;;;;;5089967;28;20490;-69
2021/03/30 02:38:59;;;;;;;11.23;7.97;;;7.20;97.70;;;;;;5086624;28;20173;-69
2021/03/30 02:41:29;;;;;;;12.18;8.43;;;7.20;97.60;;;;;;5089161;28;20039;-69
2021/03/30 02:43:57;;;;;;;14.05;9.90;;;7.20;97.70;;;;;;5086533;28;20041;-69
2021/03/30 02:46:24;;;;;;;9.55;7.07;;;7.00;97.80;;;;;;5087489;28;20060;-69
2021/03/30 02:48:52;;;;;;;13.15;9.25;;;7.10;97.60;;;;;;5081569;28;20044;-69
2021/03/30 02:51:21;;;;;;;12.45;8.60;;;7.00;97.60;;;;;;5088900;28;20036;-69
2021/03/30 02:53:47;;;;;;;14.13;9.90;;;7.00;97.90;;;;;;5088620;28;20040;-69
2021/03/30 02:56:13;;;;;;;11.70;9.95;;;7.00;98.00;;;;;;5087513;28;20036;-69
2021/03/30 02:58:40;;;;;;;11.30;9.00;;;7.10;97.80;;;;;;5086777;28;20028;-69
2021/03/30 03:01:06;;;;;;;6.50;5.65;;;7.00;98.00;;;;;;5089646;28;20160;-69
2021/03/30 03:03:34;;;;;;;17.08;8.57;;;7.00;97.90;;;;;;5089060;28;20131;-69
2021/03/30 03:06:01;;;;;;;13.05;8.57;;;7.00;97.70;;;;;;5090573;28;20032;-69
2021/03/30 03:08:29;;;;;;;12.68;8.40;;;7.10;97.80;;;;;;5091304;28;20042;-69
2021/03/30 03:10:57;;;;;;;12.45;8.52;;;7.10;97.50;;;;;;5090870;28;20094;-69
2021/03/30 03:13:25;;;;;;;11.38;7.47;;;7.10;97.40;;;;;;5086721;28;20505;-69
2021/03/30 03:15:51;;;;;;;12.23;8.15;;;7.10;97.50;;;;;;5090392;28;20114;-69
2021/03/30 03:18:17;;;;;;;8.80;6.32;;;7.00;97.10;;;;;;5090336;28;20168;-69
2021/03/30 03:20:50;;;;;;;11.27;8.48;;;6.70;96.70;;;;;;5091212;28;20066;-69
2021/03/30 03:23:16;;;;;;;14.45;9.07;;;6.50;97.40;;;;;;5089366;28;20746;-69
2021/03/30 03:25:46;;;;;;;14.13;8.60;;;6.30;98.10;;;;;;5090195;28;20069;-69
2021/03/30 03:28:12;;;;;;;11.80;8.50;;;6.40;98.40;;;;;;5090412;28;20044;-69
2021/03/30 03:30:40;;;;;;;20.27;8.95;;;6.40;98.20;;;;;;5090311;28;20042;-69
2021/03/30 03:33:08;;;;;;;10.13;8.15;;;6.40;98.30;;;;;;5090392;28;20062;-69
2021/03/30 03:35:34;;;;;;;10.63;8.75;;;6.40;98.40;;;;;;5092036;28;20055;-69
2021/03/30 03:38:01;;;;;;;15.60;8.45;;;6.50;98.40;;;;;;5089461;28;20047;-68
2021/03/30 03:40:28;;;;;;;16.65;9.80;;;6.50;98.50;;;;;;5090735;28;20038;-69
2021/03/30 03:42:54;;;;;;;17.33;10.13;;;6.60;98.50;;;;;;5089845;28;20043;-69
2021/03/30 03:45:20;;;;;;;15.73;9.20;;;6.60;98.30;;;;;;5090365;28;20032;-69
2021/03/30 03:47:46;;;;;;;14.35;9.27;;;6.60;98.10;;;;;;5090567;28;20448;-69
2021/03/30 03:50:12;;;;;;;13.80;9.43;;;6.70;97.90;;;;;;5090199;28;20024;-69
2021/03/30 03:52:45;;;;;;;11.05;7.68;;;6.70;97.80;;;;;;5088941;28;20042;-69
2021/03/30 03:55:13;;;;;;;19.63;8.68;;;6.70;97.70;;;;;;5090345;28;20043;-69
2021/03/30 03:57:51;;;;;;;17.45;10.40;;;6.80;97.60;;;;;;5086014;28;20047;-69
2021/03/30 04:00:20;;;;;;;12.95;8.35;;;6.80;97.70;;;;;;5089853;28;20043;-69
2021/03/30 04:02:47;;;;;;;15.30;10.05;;;6.80;97.60;;;;;;5087592;28;20036;-68
2021/03/30 04:05:16;;;;;;;19.08;9.38;;;6.70;97.60;;;;;;5088320;28;20040;-69
2021/03/30 04:08:04;;;;;;;17.30;9.18;;;6.80;97.70;;;;;;5087539;28;20067;-69
2021/03/30 04:10:32;;;;;;;17.48;9.52;;;6.90;97.80;;;;;;5086683;28;20065;-69
2021/03/30 04:13:00;;;;;;;15.32;9.35;;;6.70;97.70;;;;;;5086948;28;20048;-69
2021/03/30 04:15:26;;;;;;;14.13;8.90;;;6.80;97.60;;;;;;5084301;28;20093;-69
2021/03/30 04:17:53;;;;;;;14.23;9.15;;;6.80;97.50;;;;;;5082153;28;20036;-69
2021/03/30 04:20:20;;;;;;;19.58;9.63;;;6.80;97.40;;;;;;5077957;28;20067;-69
2021/03/30 04:22:54;;;;;;;19.30;10.23;;;6.80;97.50;;;;;;5085145;28;20059;-69
2021/03/30 04:25:21;;;;;;;18.80;9.35;;;6.80;97.40;;;;;;5085923;28;20132;-69
2021/03/30 04:27:46;;;;;;;14.05;7.90;;;6.80;97.50;;;;;;5083288;28;20047;-69
2021/03/30 04:30:13;;;;;;;11.38;7.82;;;6.70;97.30;;;;;;5081764;28;20466;-69
2021/03/30 04:32:38;;;;;;;10.90;8.30;;;6.60;97.10;;;;;;5083114;28;20378;-69
2021/03/30 04:35:05;;;;;;;13.93;7.95;;;6.40;97.40;;;;;;5084318;28;20048;-69
2021/03/30 04:37:31;;;;;;;9.60;8.25;;;6.40;97.80;;;;;;5083974;28;20137;-69
2021/03/30 04:39:56;;;;;;;21.60;10.35;;;6.40;97.80;;;;;;5084699;28;20141;-69
2021/03/30 04:42:22;;;;;;;19.48;9.45;;;6.30;97.90;;;;;;5086508;28;20056;-68
2021/03/30 04:44:48;;;;;;;14.70;9.18;;;6.30;98.00;;;;;;5083725;28;20036;-69
2021/03/30 04:47:14;;;;;;;24.77;10.07;;;6.40;98.00;;;;;;5086628;28;20036;-69
2021/03/30 04:49:39;;;;;;;13.57;9.52;;;6.40;98.00;;;;;;5087717;28;20422;-69
2021/03/30 04:52:06;;;;;;;17.40;9.98;;;6.40;97.80;;;;;;5085306;28;20755;-69
2021/03/30 04:54:31;;;;;;;24.17;9.43;;;6.50;97.80;;;;;;5088728;28;20032;-69
2021/03/30 04:56:57;;;;;;;19.58;8.88;;;6.50;97.80;;;;;;5089247;28;20046;-68
2021/03/30 04:59:23;;;;;;;11.73;8.30;;;6.40;97.70;;;;;;5083490;28;20056;-69
2021/03/30 05:01:48;;;;;;;21.08;9.68;;;6.40;97.70;;;;;;5086416;28;20036;-69
2021/03/30 05:04:14;;;;;;;14.32;8.13;;;6.40;97.80;;;;;;5089067;28;20114;-69
2021/03/30 05:06:40;;;;;;;16.23;9.02;;;6.40;97.70;;;;;;5088911;28;20047;-69
2021/03/30 05:09:06;;;;;;;24.13;9.18;;;6.30;97.60;;;;;;5087918;28;20408;-69
2021/03/30 05:11:31;;;;;;;30.42;10.27;;;6.30;97.80;;;;;;5088060;28;20072;-69
2021/03/30 05:13:58;;;;;;;18.15;9.23;;;6.30;97.70;;;;;;5086462;28;20040;-69
2021/03/30 05:16:23;;;;;;;13.52;9.70;;;6.30;97.60;;;;;;5083834;28;20509;-69
2021/03/30 05:18:49;;;;;;;21.05;9.45;;;6.30;97.80;;;;;;5085364;28;20046;-69
2021/03/30 05:21:17;;;;;;;20.70;10.05;;;6.40;97.80;;;;;;5089342;28;20044;-69
2021/03/30 05:23:43;;;;;;;14.10;9.35;;;6.40;98.10;;;;;;5086133;28;20050;-69
2021/03/30 05:26:08;;;;;;;23.05;9.75;;;6.40;97.60;;;;;;5086829;28;20044;-69
2021/03/30 05:28:34;;;;;;;22.42;9.23;;;6.50;97.50;;;;;;5087172;28;20044;-69
2021/03/30 05:31:00;;;;;;;20.92;9.23;;;6.50;97.30;;;;;;5087081;28;20029;-69
2021/03/30 05:33:26;;;;;;;15.07;8.77;;;6.50;97.10;;;;;;5082414;28;20028;-69
2021/03/30 05:35:51;;;;;;;22.83;10.15;;;6.60;97.00;;;;;;5085520;28;20039;-69
2021/03/30 05:38:17;;;;;;;17.23;9.00;;;6.60;97.00;;;;;;5087577;28;20108;-69
2021/03/30 05:40:43;;;;;;;20.35;9.07;;;6.60;97.20;;;;;;5088424;28;20032;-69
2021/03/30 05:43:12;;;;;;;18.75;9.05;;;6.70;97.00;;;;;;5086527;28;20040;-69
2021/03/30 05:45:38;;;;;;;17.33;9.25;;;6.80;96.80;;;;;;5086348;28;20159;-69
2021/03/30 05:48:09;;;;;;;17.95;9.45;;;6.90;97.00;;;;;;5082268;28;20044;-69
2021/03/30 05:50:35;;;;;;;13.38;8.50;;;7.10;96.70;;;;;;5084584;28;20165;-69
2021/03/30 05:53:11;;;;;;;9.38;7.40;;;7.40;96.40;;;;;;5084585;28;21505;-69
2021/03/30 05:55:39;;;;;;;20.00;8.98;;;7.80;96.00;;;;;;5085907;28;20044;-69
2021/03/30 05:58:07;;;;;;;16.20;8.00;;;8.30;95.30;;;;;;5085200;28;20613;-69
2021/03/30 06:00:46;;;;;;;11.60;7.93;;;8.80;94.50;;;;;;5087302;28;20036;-69
2021/03/30 06:03:28;;;;;;;14.07;7.88;;;9.30;93.60;;;;;;5090885;28;20036;-69
2021/03/30 06:05:55;;;;;;;14.20;7.82;;;10.00;92.00;;;;;;5090074;28;20048;-69
2021/03/30 06:08:22;;;;;;;12.95;7.35;;;10.30;91.60;;;;;;5088295;28;20051;-69
2021/03/30 06:10:51;;;;;;;14.32;8.65;;;10.70;90.60;;;;;;5091781;28;20047;-69
2021/03/30 06:13:45;;;;;;;13.93;7.72;;;11.00;89.60;;;;;;5087265;28;20040;-69
2021/03/30 06:16:36;;;;;;;11.63;7.22;;;11.40;86.30;;;;;;5088420;28;20048;-69
2021/03/30 06:19:14;;;;;;;12.23;7.13;;;11.80;84.20;;;;;;5090884;28;20035;-69
2021/03/30 06:22:00;;;;;;;17.10;7.85;;;12.20;83.40;;;;;;5090319;28;20131;-69
2021/03/30 06:24:33;;;;;;;10.43;6.15;;;12.40;81.60;;;;;;5092403;28;20036;-70
2021/03/30 06:27:05;;;;;;;11.43;6.78;;;12.70;79.80;;;;;;5089436;28;20040;-69
2021/03/30 06:29:39;;;;;;;14.93;7.03;;;12.80;79.80;;;;;;5084731;28;20044;-69
2021/03/30 06:32:09;;;;;;;9.13;6.57;;;13.20;77.70;;;;;;5086784;28;20028;-69
2021/03/30 06:34:37;;;;;;;12.18;6.90;;;13.50;77.80;;;;;;5090899;28;20036;-69
2021/03/30 06:37:25;;;;;;;9.25;6.35;;;13.80;76.70;;;;;;5090813;28;20024;-69
2021/03/30 06:39:52;;;;;;;11.40;6.70;;;14.10;73.90;;;;;;5089770;28;20046;-69
2021/03/30 06:42:42;;;;;;;12.98;6.43;;;14.40;73.50;;;;;;5086424;28;20103;-69
2021/03/30 06:45:17;;;;;;;12.95;7.47;;;14.70;71.50;;;;;;5087710;28;20466;-69
2021/03/30 06:47:45;;;;;;;20.30;7.68;;;14.90;69.00;;;;;;5088920;28;21546;-69
2021/03/30 06:50:23;;;;;;;23.90;7.63;;;15.10;68.70;;;;;;5089582;28;20143;-69
2021/03/30 06:52:49;;;;;;;12.60;6.50;;;15.10;66.30;;;;;;5082542;28;20063;-69
2021/03/30 06:55:28;;;;;;;12.13;6.20;;;15.20;65.90;;;;;;5088681;28;20048;-69
2021/03/30 06:58:03;;;;;;;13.73;7.38;;;15.40;63.20;;;;;;5089454;28;20143;-69
2021/03/30 07:00:37;;;;;;;13.00;7.15;;;15.40;63.00;;;;;;5087323;28;20048;-69
2021/03/30 07:03:08;;;;;;;14.13;7.20;;;15.50;63.10;;;;;;5087689;28;20583;-69
2021/03/30 07:05:39;;;;;;;14.18;6.95;;;15.30;63.30;;;;;;5089930;28;20527;-69
2021/03/30 07:08:10;;;;;;;12.02;6.93;;;15.10;64.50;;;;;;5087211;28;20104;-69
2021/03/30 07:10:39;;;;;;;12.60;7.43;;;14.90;64.10;;;;;;5086245;28;20562;-69
2021/03/30 07:13:06;;;;;;;15.13;7.00;;;14.60;64.40;;;;;;5084116;28;20035;-69
2021/03/30 07:15:33;;;;;;;17.95;7.15;;;14.40;65.50;;;;;;5087911;28;20106;-69
2021/03/30 07:18:02;;;;;;;20.30;7.55;;;14.20;67.00;;;;;;5081956;28;20059;-68
2021/03/30 07:20:42;;;;;;;15.30;8.13;;;14.10;68.10;;;;;;5084770;28;20044;-69
2021/03/30 07:23:11;;;;;;;13.73;7.95;;;14.00;68.50;;;;;;5078205;28;21571;-69
2021/03/30 07:25:44;;;;;;;13.57;8.38;;;14.00;68.40;;;;;;5079986;28;20044;-69
2021/03/30 07:28:16;;;;;;;12.68;7.93;;;14.00;69.10;;;;;;5088443;28;20043;-69
2021/03/30 07:30:45;;;;;;;12.10;8.13;;;13.80;68.80;;;;;;5079947;28;20035;-69
2021/03/30 07:33:55;;;;;;;19.35;8.30;;;13.80;70.30;;;;;;5080744;28;20093;-69
2021/03/30 07:36:22;;;;;;;13.70;8.90;;;13.80;71.10;;;;;;5070997;28;20149;-69
2021/03/30 07:39:00;;;;;;;14.85;8.45;;;13.80;71.50;;;;;;5081745;28;20036;-69
2021/03/30 07:41:26;;;;;;;12.10;8.27;;;13.80;72.50;;;;;;5082001;28;20032;-70
2021/03/30 07:43:57;;;;;;;16.63;8.70;;;13.80;72.80;;;;;;5082779;28;21639;-69
2021/03/30 07:46:23;;;;;;;17.90;9.55;;;13.90;73.20;;;;;;5084771;28;20634;-70
2021/03/30 07:48:49;;;;;;;18.13;8.35;;;14.00;72.40;;;;;;5086306;28;20036;-69
2021/03/30 07:51:26;;;;;;;17.10;8.75;;;14.00;70.60;;;;;;5082148;28;20040;-70
2021/03/30 07:54:13;;;;;;;12.60;8.23;;;14.10;73.80;;;;;;5082177;28;20140;-69
2021/03/30 07:56:38;;;;;;;14.35;8.38;;;14.00;71.10;;;;;;5086372;28;20119;-69
2021/03/30 07:59:04;;;;;;;13.82;8.10;;;14.00;72.30;;;;;;5085979;28;20590;-69
2021/03/30 08:01:32;;;;;;;18.38;8.70;;;13.90;72.60;;;;;;5082131;28;20170;-69
2021/03/30 08:04:00;;;;;;;17.63;8.05;;;14.00;72.90;;;;;;5077388;28;20044;-70
2021/03/30 08:06:36;;;;;;;17.02;6.80;;;14.10;72.50;;;;;;5086300;28;20043;-70
2021/03/30 08:09:09;;;;;;;15.25;7.28;;;14.30;72.40;;;;;;5086557;28;20039;-70
2021/03/30 08:11:42;;;;;;;24.83;7.40;;;14.40;68.30;;;;;;5087025;28;20036;-69
2021/03/30 08:14:09;;;;;;;14.40;6.90;;;14.60;69.60;;;;;;5086852;28;20044;-69
2021/03/30 08:16:36;;;;;;;15.98;6.82;;;14.70;68.60;;;;;;5087490;28;20523;-69
2021/03/30 08:19:12;;;;;;;14.00;7.25;;;14.90;67.60;;;;;;5078162;28;20048;-70
2021/03/30 08:22:10;;;;;;;;;;;15.20;66.30;;;;;;5081199;28;20040;-70
2021/03/30 08:24:45;;;;;;;11.35;6.32;;;15.50;66.80;;;;;;5061060;28;20393;-70
2021/03/30 08:27:32;;;;;;;14.38;6.78;;;16.00;64.20;;;;;;5086382;28;20040;-70
2021/03/30 08:30:03;;;;;;;18.20;7.47;;;16.50;61.80;;;;;;5083599;28;20126;-70
2021/03/30 08:32:31;;;;;;;16.05;6.50;;;17.00;60.30;;;;;;5079787;28;20033;-70
2021/03/30 08:34:58;;;;;;;15.48;7.32;;;17.30;59.40;;;;;;5096535;27;20129;-70
2021/03/30 08:37:38;;;;;;;12.98;6.25;;;17.50;59.20;;;;;;5078467;28;20047;-70
2021/03/30 08:40:24;;;;;;;16.92;6.72;;;17.90;58.70;;;;;;5082386;28;20048;-70
2021/03/30 08:42:56;;;;;;;12.70;6.60;;;18.10;57.00;;;;;;5082806;28;20402;-70
2021/03/30 08:45:21;;;;;;;14.70;6.85;;;18.50;56.20;;;;;;5086144;28;20051;-70
2021/03/30 08:47:47;;;;;;;14.77;6.15;;;18.70;56.40;;;;;;5081161;28;20044;-70
2021/03/30 08:50:16;;;;;;;10.07;5.78;;;18.90;54.80;;;;;;5080752;28;20458;-70
2021/03/30 08:52:42;;;;;;;15.30;6.53;;;19.10;52.30;;;;;;5111081;27;20028;-70
2021/03/30 08:55:09;;;;;;;12.15;6.45;;;19.00;54.60;;;;;;5081502;28;20044;-70
2021/03/30 08:57:37;;;;;;;12.57;6.50;;;19.10;54.80;;;;;;5082954;28;20043;-70
2021/03/30 09:00:07;;;;;;;13.25;6.95;;;18.90;55.00;;;;;;5087049;28;20402;-70
2021/03/30 09:02:33;;;;;;;10.27;6.32;;;18.70;53.80;;;;;;5084374;28;20039;-70
2021/03/30 09:05:01;;;;;;;11.82;6.07;;;18.40;56.10;;;;;;5083943;28;20027;-70
2021/03/30 09:07:26;;;;;;;14.82;6.85;;;18.30;56.70;;;;;;5080394;28;20071;-70
2021/03/30 09:10:07;;;;;;;15.13;6.53;;;18.20;57.70;;;;;;5080922;28;20123;-70
2021/03/30 09:12:32;;;;;;;12.00;5.75;;;18.10;57.30;;;;;;5075735;28;20089;-70
2021/03/30 09:15:06;;;;;;;14.40;7.28;;;17.90;56.40;;;;;;5083198;28;20048;-70
2021/03/30 09:17:32;;;;;;;13.35;6.40;;;18.00;57.50;;;;;;5084793;28;20127;-70
2021/03/30 09:20:00;;;;;;;14.35;6.28;;;18.00;56.70;;;;;;5086134;28;20052;-70
2021/03/30 09:22:31;;;;;;;12.98;6.03;;;18.00;57.40;;;;;;5076901;28;20133;-70
2021/03/30 09:25:23;;;;;;;10.02;5.50;;;17.90;58.20;;;;;;5077966;28;20526;-70
2021/03/30 09:27:49;;;;;;;13.48;5.95;;;17.90;55.80;;;;;;5082859;28;20443;-70
2021/03/30 09:30:18;;;;;;;11.15;6.38;;;17.80;56.70;;;;;;5082076;28;20046;-70
2021/03/30 09:32:45;;;;;;;8.50;6.32;;;17.80;56.80;;;;;;5082479;28;20047;-69
2021/03/30 09:35:23;;;;;;;13.65;6.72;;;17.70;58.10;;;;;;5086014;28;20051;-69
2021/03/30 09:37:52;;;;;;;13.45;6.20;;;17.80;59.10;;;;;;5088645;28;20036;-69
2021/03/30 09:40:25;;;;;;;16.23;5.60;;;17.80;57.60;;;;;;5121052;27;20375;-69
2021/03/30 09:42:52;;;;;;;14.15;6.10;;;17.80;57.60;;;;;;5085912;28;20047;-69
2021/03/30 09:45:26;;;;;;;15.80;6.22;;;17.90;57.70;;;;;;5086626;28;20036;-69
2021/03/30 09:47:53;;;;;;;9.30;5.53;;;18.00;57.20;;;;;;5088536;28;20040;-69
2021/03/30 09:50:21;;;;;;;10.07;6.22;;;18.00;57.80;;;;;;5086857;28;20049;-69
2021/03/30 09:52:49;;;;;;;15.95;7.05;;;18.10;57.70;;;;;;5083172;28;20040;-69
2021/03/30 09:55:36;;;;;;;9.40;5.82;;;18.10;58.00;;;;;;5088452;28;20101;-69
2021/03/30 09:58:07;;;;;;;10.05;5.85;;;18.20;57.70;;;;;;5089395;28;20577;-69
2021/03/30 10:00:40;;;;;;;13.73;7.03;;;18.30;57.30;;;;;;5091015;28;20431;-69
2021/03/30 10:03:08;;;;;;;12.45;6.00;;;18.20;56.30;;;;;;5091655;28;20039;-69
2021/03/30 10:05:35;;;;;;;13.95;5.57;;;18.20;57.20;;;;;;5090425;28;20405;-69
2021/03/30 10:08:01;;;;;;;8.13;5.10;;;18.20;58.10;;;;;;5088734;28;20048;-69
2021/03/30 10:10:41;;;;;;;12.15;5.53;;;18.20;56.10;;;;;;5092417;28;20039;-69
2021/03/30 10:13:08;;;;;;;10.90;5.53;;;18.30;56.90;;;;;;5086814;28;20474;-69
2021/03/30 10:15:37;;;;;;;14.23;5.75;;;18.40;55.80;;;;;;5089389;28;20042;-69
2021/03/30 10:18:07;;;;;;;14.10;5.95;;;18.50;56.10;;;;;;5090323;28;20138;-69
2021/03/30 10:20:47;;;;;;;12.30;5.60;;;18.50;58.10;;;;;;5083041;28;20058;-69
2021/03/30 10:23:19;;;;;;;13.18;6.03;;;18.50;56.10;;;;;;5087975;28;20151;-69
2021/03/30 10:25:44;;;;;;;12.73;5.40;;;18.60;58.20;;;;;;5113454;27;20411;-69
2021/03/30 10:28:11;;;;;;;13.43;6.03;;;18.70;56.60;;;;;;5090844;28;20055;-69
2021/03/30 10:30:56;;;;;;;12.02;5.05;;;18.70;55.30;;;;;;5087164;28;20036;-69
2021/03/30 10:33:39;;;;;;;13.23;5.90;;;18.80;54.10;;;;;;5083329;28;20112;-69
2021/03/30 10:36:09;;;;;;;12.70;5.38;;;18.80;54.30;;;;;;5088163;28;20305;-69
2021/03/30 10:38:36;;;;;;;11.13;5.47;;;18.80;55.20;;;;;;5089480;28;20129;-69
2021/03/30 10:41:07;;;;;;;11.98;5.68;;;18.90;54.50;;;;;;5091598;28;20036;-69
2021/03/30 10:43:33;;;;;;;20.95;6.95;;;18.90;55.80;;;;;;5084956;28;20154;-69
2021/03/30 10:45:59;;;;;;;14.57;7.03;;;19.00;56.20;;;;;;5084140;28;20103;-69
2021/03/30 10:48:25;;;;;;;15.38;5.72;;;19.10;57.60;;;;;;5084362;28;20044;-69
2021/03/30 10:50:54;;;;;;;15.18;5.75;;;19.10;53.80;;;;;;5089263;28;20055;-69
2021/03/30 10:53:21;;;;;;;13.05;5.97;;;19.20;54.70;;;;;;5086214;28;20029;-69
2021/03/30 10:55:47;;;;;;;10.57;5.60;;;19.20;53.30;;;;;;5086795;28;20048;-69
2021/03/30 10:58:15;;;;;;;11.65;5.32;;;19.30;55.20;;;;;;5088887;28;20169;-69
2021/03/30 11:00:41;;;;;;;8.65;5.10;;;19.30;52.80;;;;;;5089034;28;20036;-69
2021/03/30 11:03:07;;;;;;;16.60;6.00;;;19.30;51.10;;;;;;5084890;28;20119;-69
2021/03/30 11:05:35;;;;;;;9.32;4.72;;;19.30;54.20;;;;;;5090078;28;20418;-70
2021/03/30 11:08:02;;;;;;;7.53;4.63;;;19.40;49.90;;;;;;5087051;28;20123;-70
2021/03/30 11:10:28;;;;;;;10.13;4.82;;;19.40;49.80;;;;;;5089706;28;20418;-69
2021/03/30 11:12:54;;;;;;;8.88;4.15;;;19.40;50.30;;;;;;5083296;28;20162;-69
2021/03/30 11:15:20;;;;;;;9.70;4.35;;;19.40;49.90;;;;;;5091664;28;20040;-69
2021/03/30 11:17:46;;;;;;;13.05;4.63;;;19.40;49.90;;;;;;5085482;28;20486;-69
2021/03/30 11:20:13;;;;;;;10.50;3.70;;;19.50;49.80;;;;;;5087334;28;20044;-69
2021/03/30 11:22:42;;;;;;;8.55;4.10;;;19.60;49.80;;;;;;5083834;28;20112;-70
2021/03/30 11:25:10;;;;;;;10.00;4.63;;;19.70;49.30;;;;;;5086586;28;20047;-70
2021/03/30 11:27:37;;;;;;;10.05;4.22;;;19.70;48.80;;;;;;5085425;28;20036;-70
2021/03/30 11:35:11;;;;;;;10.20;4.97;;;19.80;48.30;;;;;;5087185;28;20028;-69
2021/03/30 11:37:53;;;;;;;7.88;3.65;;;19.90;47.50;;;;;;5082549;28;20032;-70
2021/03/30 11:40:19;;;;;;;8.45;3.05;;;19.90;45.90;;;;;;5084551;28;21183;-70
2021/03/30 11:42:45;;;;;;;8.95;3.75;;;20.00;42.90;;;;;;5082331;28;20077;-70
2021/03/30 11:45:11;;;;;;;6.63;3.60;;;20.10;45.30;;;;;;5088488;28;20040;-70
2021/03/30 11:47:37;;;;;;;6.13;3.30;;;20.10;44.00;;;;;;5083048;28;20048;-70
2021/03/30 11:50:06;;;;;;;5.13;2.92;;;20.10;43.20;;;;;;5104674;27;20077;-70
2021/03/30 11:52:33;;;;;;;9.25;4.05;;;20.20;43.90;;;;;;5084803;28;20707;-70
2021/03/30 11:54:59;;;;;;;7.80;3.85;;;20.30;45.50;;;;;;5088324;28;20044;-70
2021/03/30 11:57:25;;;;;;;8.93;3.80;;;20.20;46.00;;;;;;5087831;28;20055;-70
2021/03/30 11:59:50;;;;;;;7.20;3.03;;;20.20;44.20;;;;;;5090317;28;20044;-70
2021/03/30 12:02:16;;;;;;;9.40;4.00;;;20.30;44.70;;;;;;5085752;28;20040;-70
2021/03/30 12:04:42;;;;;;;7.75;4.70;;;20.30;45.80;;;;;;5083514;28;20063;-70
2021/03/30 12:07:07;;;;;;;12.20;4.43;;;20.30;44.10;;;;;;5087829;28;20060;-70
2021/03/30 12:09:33;;;;;;;8.93;4.15;;;20.30;46.30;;;;;;5086223;28;20036;-70
2021/03/30 12:11:59;;;;;;;6.40;3.53;;;20.30;46.20;;;;;;5084536;28;20395;-70
2021/03/30 12:14:24;;;;;;;8.25;3.90;;;20.30;44.50;;;;;;5086004;28;20047;-70
2021/03/30 12:16:50;;;;;;;9.65;3.35;;;20.40;43.20;;;;;;5086512;28;20466;-70
2021/03/30 12:19:18;;;;;;;7.50;2.92;;;20.50;42.20;;;;;;5080814;28;20074;-70
2021/03/30 12:21:45;;;;;;;14.13;3.08;;;20.50;41.60;;;;;;5083390;28;20059;-70
2021/03/30 12:24:11;;;;;;;5.80;2.63;;;20.50;42.00;;;;;;5082991;28;20067;-70
2021/03/30 12:26:38;;;;;;;10.88;3.72;;;20.60;42.30;;;;;;5088060;28;20035;-70
2021/03/30 12:29:04;;;;;;;6.13;2.67;;;20.70;41.70;;;;;;5086141;28;20143;-70
2021/03/30 12:31:31;;;;;;;4.68;2.45;;;20.70;40.70;;;;;;5084631;28;20032;-70
2021/03/30 12:33:57;;;;;;;16.33;3.10;;;20.60;38.80;;;;;;5081373;28;20032;-70
2021/03/30 12:36:23;;;;;;;5.82;2.10;;;20.50;38.70;;;;;;5086743;28;20040;-70
2021/03/30 12:38:49;;;;;;;9.50;2.47;;;20.50;39.20;;;;;;5084682;28;20050;-70
2021/03/30 12:41:15;;;;;;;5.82;2.30;;;20.40;39.90;;;;;;5087208;28;20504;-70
2021/03/30 12:43:41;;;;;;;6.93;3.20;;;20.50;42.60;;;;;;5085955;28;20406;-70
2021/03/30 12:46:07;;;;;;;6.57;3.13;;;20.50;41.90;;;;;;5086137;28;20040;-70
2021/03/30 12:48:33;;;;;;;5.38;1.95;;;20.50;37.10;;;;;;5082111;28;20047;-70
2021/03/30 12:50:59;;;;;;;6.03;2.95;;;20.40;39.70;;;;;;5085610;28;20044;-70
2021/03/30 12:53:25;;;;;;;4.50;2.25;;;20.40;40.10;;;;;;5085889;28;20035;-70
2021/03/30 12:55:50;;;;;;;6.28;2.22;;;20.40;37.00;;;;;;5084909;28;20051;-70
2021/03/30 12:58:16;;;;;;;5.00;2.03;;;20.30;37.80;;;;;;5086425;28;20044;-70
2021/03/30 13:00:42;;;;;;;6.47;2.10;;;20.30;37.10;;;;;;5085065;28;20134;-70
2021/03/30 13:03:08;;;;;;;7.53;2.78;;;20.40;37.50;;;;;;5082617;28;20047;-70